sensor_id;sensor_type;location;lat;lon;timestamp;pressure;altitude;pressure_sealevel;temperature;humidity
45872;BME280;32333;55.844;-3.210;2023-12-20T00:01:46;98900.09;;;2.32;100.00
45872;BME280;32333;55.844;-3.210;2023-12-20T00:04:14;98906.04;;;2.24;100.00
45872;BME280;32333;55.844;-3.210;2023-12-20T00:06:42;98913.54;;;2.61;100.00
45872;BME280;32333;55.844;-3.210;2023-12-20T00:09:10;98913.91;;;2.08;100.00
45872;BME280;32333;55.844;-3.210;2023-12-20T00:11:37;98927.66;;;2.59;100.00
45872;BME280;32333;55.844;-3.210;2023-12-20T00:14:34;98920.98;;;2.08;100.00
45872;BME280;32333;55.844;-3.210;2023-12-20T00:17:02;98932.11;;;1.93;100.00
45872;BME280;32333;55.844;-3.210;2023-12-20T00:19:30;98930.02;;;1.99;100.00
45872;BME280;32333;55.844;-3.210;2023-12-20T00:21:57;98929.67;;;2.09;100.00
45872;BME280;32333;55.844;-3.210;2023-12-20T00:24:24;98922.01;;;1.97;100.00
45872;BME280;32333;55.844;-3.210;2023-12-20T00:26:51;98925.96;;;2.90;100.00
45872;BME280;32333;55.844;-3.210;2023-12-20T00:29:18;98927.75;;;2.27;100.00
45872;BME280;32333;55.844;-3.210;2023-12-20T00:31:46;98912.95;;;2.35;100.00
45872;BME280;32333;55.844;-3.210;2023-12-20T00:34:13;98911.99;;;2.40;100.00
45872;BME280;32333;55.844;-3.210;2023-12-20T00:36:40;98891.75;;;2.50;100.00
45872;BME280;32333;55.844;-3.210;2023-12-20T00:39:07;98884.89;;;2.74;100.00
45872;BME280;32333;55.844;-3.210;2023-12-20T00:41:35;98887.22;;;3.06;100.00
45872;BME280;32333;55.844;-3.210;2023-12-20T00:44:35;98888.62;;;2.53;100.00
45872;BME280;32333;55.844;-3.210;2023-12-20T00:47:02;98881.19;;;2.93;100.00
45872;BME280;32333;55.844;-3.210;2023-12-20T00:49:29;98890.35;;;3.06;100.00
45872;BME280;32333;55.844;-3.210;2023-12-20T00:51:56;98887.51;;;2.70;100.00
45872;BME280;32333;55.844;-3.210;2023-12-20T00:54:23;98885.68;;;2.22;100.00
45872;BME280;32333;55.844;-3.210;2023-12-20T00:56:51;98887.35;;;3.09;100.00
45872;BME280;32333;55.844;-3.210;2023-12-20T00:59:20;98903.45;;;3.57;100.00
45872;BME280;32333;55.844;-3.210;2023-12-20T01:01:47;98904.51;;;2.95;100.00
45872;BME280;32333;55.844;-3.210;2023-12-20T01:04:14;98909.34;;;2.40;100.00
45872;BME280;32333;55.844;-3.210;2023-12-20T01:06:42;98903.40;;;2.65;100.00
45872;BME280;32333;55.844;-3.210;2023-12-20T01:09:09;98920.05;;;2.91;100.00
45872;BME280;32333;55.844;-3.210;2023-12-20T01:11:36;98901.46;;;2.92;100.00
45872;BME280;32333;55.844;-3.210;2023-12-20T01:14:35;98922.80;;;2.95;100.00
45872;BME280;32333;55.844;-3.210;2023-12-20T01:17:03;98927.57;;;3.34;100.00
45872;BME280;32333;55.844;-3.210;2023-12-20T01:19:32;98919.08;;;2.61;100.00
45872;BME280;32333;55.844;-3.210;2023-12-20T01:22:02;98905.72;;;2.93;100.00
45872;BME280;32333;55.844;-3.210;2023-12-20T01:24:29;98914.09;;;2.76;100.00
45872;BME280;32333;55.844;-3.210;2023-12-20T01:26:57;98912.38;;;3.13;100.00
45872;BME280;32333;55.844;-3.210;2023-12-20T01:29:25;98920.28;;;2.57;100.00
45872;BME280;32333;55.844;-3.210;2023-12-20T01:31:52;98913.39;;;2.73;100.00
45872;BME280;32333;55.844;-3.210;2023-12-20T01:34:21;98938.30;;;2.78;100.00
45872;BME280;32333;55.844;-3.210;2023-12-20T01:36:49;98925.57;;;2.40;100.00
45872;BME280;32333;55.844;-3.210;2023-12-20T01:39:17;98923.19;;;2.93;100.00
45872;BME280;32333;55.844;-3.210;2023-12-20T01:41:45;98920.86;;;2.58;100.00
45872;BME280;32333;55.844;-3.210;2023-12-20T01:44:35;98925.97;;;2.22;100.00
45872;BME280;32333;55.844;-3.210;2023-12-20T01:47:02;98923.08;;;2.24;100.00
45872;BME280;32333;55.844;-3.210;2023-12-20T01:49:31;98919.19;;;2.06;100.00
45872;BME280;32333;55.844;-3.210;2023-12-20T01:51:58;98933.63;;;2.42;100.00
45872;BME280;32333;55.844;-3.210;2023-12-20T01:54:26;98936.14;;;2.66;100.00
45872;BME280;32333;55.844;-3.210;2023-12-20T01:56:54;98942.88;;;2.62;100.00
45872;BME280;32333;55.844;-3.210;2023-12-20T01:59:21;98953.47;;;2.60;100.00
45872;BME280;32333;55.844;-3.210;2023-12-20T02:01:48;98951.47;;;2.91;100.00
45872;BME280;32333;55.844;-3.210;2023-12-20T02:04:16;98958.33;;;2.54;100.00
45872;BME280;32333;55.844;-3.210;2023-12-20T02:06:46;98964.12;;;3.17;100.00
45872;BME280;32333;55.844;-3.210;2023-12-20T02:09:15;98973.24;;;2.46;100.00
45872;BME280;32333;55.844;-3.210;2023-12-20T02:11:42;98986.81;;;2.62;100.00
45872;BME280;32333;55.844;-3.210;2023-12-20T02:14:34;98986.55;;;2.46;100.00
45872;BME280;32333;55.844;-3.210;2023-12-20T02:17:02;98989.71;;;3.06;100.00
45872;BME280;32333;55.844;-3.210;2023-12-20T02:19:30;99004.01;;;2.68;100.00
45872;BME280;32333;55.844;-3.210;2023-12-20T02:22:13;98999.66;;;2.77;100.00
45872;BME280;32333;55.844;-3.210;2023-12-20T02:24:40;99003.44;;;2.86;100.00
45872;BME280;32333;55.844;-3.210;2023-12-20T02:27:08;99007.56;;;2.77;100.00
45872;BME280;32333;55.844;-3.210;2023-12-20T02:29:36;99006.18;;;2.73;100.00
45872;BME280;32333;55.844;-3.210;2023-12-20T02:32:04;99011.45;;;2.55;100.00
45872;BME280;32333;55.844;-3.210;2023-12-20T02:34:32;99013.84;;;3.18;100.00
45872;BME280;32333;55.844;-3.210;2023-12-20T02:36:59;99009.14;;;2.54;100.00
45872;BME280;32333;55.844;-3.210;2023-12-20T02:39:26;99006.70;;;2.89;100.00
45872;BME280;32333;55.844;-3.210;2023-12-20T02:41:54;99011.00;;;2.54;100.00
45872;BME280;32333;55.844;-3.210;2023-12-20T02:44:34;99016.10;;;3.15;100.00
45872;BME280;32333;55.844;-3.210;2023-12-20T02:47:04;99014.60;;;3.00;100.00
45872;BME280;32333;55.844;-3.210;2023-12-20T02:49:32;99005.83;;;2.96;100.00
45872;BME280;32333;55.844;-3.210;2023-12-20T02:51:59;99005.11;;;2.85;100.00
45872;BME280;32333;55.844;-3.210;2023-12-20T02:54:26;99008.38;;;2.80;100.00
45872;BME280;32333;55.844;-3.210;2023-12-20T02:56:54;99011.72;;;2.72;100.00
45872;BME280;32333;55.844;-3.210;2023-12-20T02:59:22;99013.93;;;2.63;100.00
45872;BME280;32333;55.844;-3.210;2023-12-20T03:01:49;99020.02;;;2.80;100.00
45872;BME280;32333;55.844;-3.210;2023-12-20T03:04:16;99014.10;;;2.44;100.00
45872;BME280;32333;55.844;-3.210;2023-12-20T03:06:43;99007.85;;;2.73;100.00
45872;BME280;32333;55.844;-3.210;2023-12-20T03:09:10;99011.50;;;2.48;100.00
45872;BME280;32333;55.844;-3.210;2023-12-20T03:11:38;99026.67;;;2.81;100.00
45872;BME280;32333;55.844;-3.210;2023-12-20T03:14:34;99030.45;;;3.15;100.00
45872;BME280;32333;55.844;-3.210;2023-12-20T03:17:01;99033.92;;;2.73;100.00
45872;BME280;32333;55.844;-3.210;2023-12-20T03:19:29;99034.86;;;2.64;100.00
45872;BME280;32333;55.844;-3.210;2023-12-20T03:21:56;99035.25;;;2.94;100.00
45872;BME280;32333;55.844;-3.210;2023-12-20T03:24:24;99035.75;;;2.52;100.00
45872;BME280;32333;55.844;-3.210;2023-12-20T03:26:52;99042.37;;;2.36;100.00
45872;BME280;32333;55.844;-3.210;2023-12-20T03:29:19;99048.57;;;2.48;100.00
45872;BME280;32333;55.844;-3.210;2023-12-20T03:31:47;99047.54;;;2.26;100.00
45872;BME280;32333;55.844;-3.210;2023-12-20T03:34:14;99045.23;;;2.50;100.00
45872;BME280;32333;55.844;-3.210;2023-12-20T03:36:43;99041.28;;;2.87;100.00
45872;BME280;32333;55.844;-3.210;2023-12-20T03:39:11;99037.07;;;2.77;100.00
45872;BME280;32333;55.844;-3.210;2023-12-20T03:41:38;99029.83;;;2.90;100.00
45872;BME280;32333;55.844;-3.210;2023-12-20T03:44:34;99037.30;;;2.63;100.00
45872;BME280;32333;55.844;-3.210;2023-12-20T03:47:02;99033.31;;;2.64;100.00
45872;BME280;32333;55.844;-3.210;2023-12-20T03:49:31;99027.78;;;3.44;100.00
45872;BME280;32333;55.844;-3.210;2023-12-20T03:51:58;99035.45;;;1.80;100.00
45872;BME280;32333;55.844;-3.210;2023-12-20T03:54:25;99027.36;;;1.50;100.00
45872;BME280;32333;55.844;-3.210;2023-12-20T03:56:53;99025.47;;;2.26;100.00
45872;BME280;32333;55.844;-3.210;2023-12-20T03:59:22;99021.05;;;1.81;100.00
45872;BME280;32333;55.844;-3.210;2023-12-20T04:01:49;99016.55;;;2.57;100.00
45872;BME280;32333;55.844;-3.210;2023-12-20T04:04:17;99013.25;;;2.29;100.00
45872;BME280;32333;55.844;-3.210;2023-12-20T04:06:45;99018.80;;;2.07;100.00
45872;BME280;32333;55.844;-3.210;2023-12-20T04:09:13;99016.80;;;2.42;100.00
45872;BME280;32333;55.844;-3.210;2023-12-20T04:11:40;99014.95;;;2.44;100.00
45872;BME280;32333;55.844;-3.210;2023-12-20T04:14:35;99021.10;;;2.65;100.00
45872;BME280;32333;55.844;-3.210;2023-12-20T04:17:02;99011.63;;;1.65;100.00
45872;BME280;32333;55.844;-3.210;2023-12-20T04:19:30;99015.50;;;2.69;100.00
45872;BME280;32333;55.844;-3.210;2023-12-20T04:21:57;98995.63;;;2.21;100.00
45872;BME280;32333;55.844;-3.210;2023-12-20T04:24:24;99001.52;;;2.36;100.00
45872;BME280;32333;55.844;-3.210;2023-12-20T04:26:52;98999.96;;;2.47;100.00
45872;BME280;32333;55.844;-3.210;2023-12-20T04:29:19;98991.15;;;2.00;100.00
45872;BME280;32333;55.844;-3.210;2023-12-20T04:31:47;98989.57;;;2.33;100.00
45872;BME280;32333;55.844;-3.210;2023-12-20T04:34:15;98995.48;;;1.79;100.00
45872;BME280;32333;55.844;-3.210;2023-12-20T04:36:42;98983.34;;;2.14;100.00
45872;BME280;32333;55.844;-3.210;2023-12-20T04:39:11;98972.12;;;2.27;100.00
45872;BME280;32333;55.844;-3.210;2023-12-20T04:41:38;98971.92;;;1.75;100.00
45872;BME280;32333;55.844;-3.210;2023-12-20T04:44:35;98965.65;;;2.51;100.00
45872;BME280;32333;55.844;-3.210;2023-12-20T04:47:03;98964.56;;;2.09;100.00
45872;BME280;32333;55.844;-3.210;2023-12-20T04:49:30;98972.62;;;2.76;100.00
45872;BME280;32333;55.844;-3.210;2023-12-20T04:51:58;98962.18;;;1.96;100.00
45872;BME280;32333;55.844;-3.210;2023-12-20T04:54:26;98959.28;;;2.43;100.00
45872;BME280;32333;55.844;-3.210;2023-12-20T04:56:54;98964.91;;;2.40;100.00
45872;BME280;32333;55.844;-3.210;2023-12-20T04:59:23;98967.54;;;2.02;100.00
45872;BME280;32333;55.844;-3.210;2023-12-20T05:01:51;98969.57;;;2.07;100.00
45872;BME280;32333;55.844;-3.210;2023-12-20T05:04:19;98966.78;;;2.04;100.00
45872;BME280;32333;55.844;-3.210;2023-12-20T05:06:47;98962.56;;;1.86;100.00
45872;BME280;32333;55.844;-3.210;2023-12-20T05:09:15;98952.86;;;1.94;100.00
45872;BME280;32333;55.844;-3.210;2023-12-20T05:11:43;98962.74;;;2.16;100.00
45872;BME280;32333;55.844;-3.210;2023-12-20T05:14:34;98972.60;;;2.42;100.00
45872;BME280;32333;55.844;-3.210;2023-12-20T05:17:03;98971.77;;;2.37;100.00
45872;BME280;32333;55.844;-3.210;2023-12-20T05:19:31;98964.46;;;2.31;100.00
45872;BME280;32333;55.844;-3.210;2023-12-20T05:21:58;98975.38;;;2.32;100.00
45872;BME280;32333;55.844;-3.210;2023-12-20T05:24:27;98976.55;;;2.15;100.00
45872;BME280;32333;55.844;-3.210;2023-12-20T05:26:56;98981.53;;;2.38;100.00
45872;BME280;32333;55.844;-3.210;2023-12-20T05:29:24;98972.73;;;1.95;100.00
45872;BME280;32333;55.844;-3.210;2023-12-20T05:31:51;98990.48;;;2.24;100.00
45872;BME280;32333;55.844;-3.210;2023-12-20T05:34:20;98995.21;;;2.49;100.00
45872;BME280;32333;55.844;-3.210;2023-12-20T05:36:48;99003.42;;;2.18;100.00
45872;BME280;32333;55.844;-3.210;2023-12-20T05:39:17;99000.50;;;2.52;100.00
45872;BME280;32333;55.844;-3.210;2023-12-20T05:41:44;98994.81;;;2.36;100.00
45872;BME280;32333;55.844;-3.210;2023-12-20T05:44:35;98990.71;;;2.70;100.00
45872;BME280;32333;55.844;-3.210;2023-12-20T05:47:02;98991.80;;;2.22;100.00
45872;BME280;32333;55.844;-3.210;2023-12-20T05:49:30;98987.89;;;2.51;100.00
45872;BME280;32333;55.844;-3.210;2023-12-20T05:51:58;98987.12;;;2.22;100.00
45872;BME280;32333;55.844;-3.210;2023-12-20T05:54:25;98986.01;;;2.54;100.00
45872;BME280;32333;55.844;-3.210;2023-12-20T05:56:53;98988.03;;;2.41;100.00
45872;BME280;32333;55.844;-3.210;2023-12-20T05:59:22;98988.72;;;2.34;100.00
45872;BME280;32333;55.844;-3.210;2023-12-20T06:01:52;98997.05;;;2.38;100.00
45872;BME280;32333;55.844;-3.210;2023-12-20T06:04:19;98999.96;;;2.45;100.00
45872;BME280;32333;55.844;-3.210;2023-12-20T06:06:48;98997.89;;;2.58;100.00
45872;BME280;32333;55.844;-3.210;2023-12-20T06:09:16;98993.59;;;2.89;100.00
45872;BME280;32333;55.844;-3.210;2023-12-20T06:11:45;98995.33;;;2.62;100.00
45872;BME280;32333;55.844;-3.210;2023-12-20T06:14:35;99007.90;;;2.64;100.00
45872;BME280;32333;55.844;-3.210;2023-12-20T06:17:03;99012.94;;;2.97;100.00
45872;BME280;32333;55.844;-3.210;2023-12-20T06:19:31;99011.39;;;2.46;100.00
45872;BME280;32333;55.844;-3.210;2023-12-20T06:21:59;99013.34;;;2.77;100.00
45872;BME280;32333;55.844;-3.210;2023-12-20T06:24:27;99012.77;;;3.29;100.00
45872;BME280;32333;55.844;-3.210;2023-12-20T06:26:55;99007.72;;;2.95;100.00
45872;BME280;32333;55.844;-3.210;2023-12-20T06:29:24;99001.82;;;3.26;100.00
45872;BME280;32333;55.844;-3.210;2023-12-20T06:31:51;98995.25;;;2.51;100.00
45872;BME280;32333;55.844;-3.210;2023-12-20T06:34:20;98996.28;;;2.72;100.00
45872;BME280;32333;55.844;-3.210;2023-12-20T06:36:49;98992.62;;;2.82;100.00
45872;BME280;32333;55.844;-3.210;2023-12-20T06:39:16;98990.60;;;2.77;100.00
45872;BME280;32333;55.844;-3.210;2023-12-20T06:41:44;98983.08;;;3.21;100.00
45872;BME280;32333;55.844;-3.210;2023-12-20T06:44:35;98982.61;;;3.07;100.00
45872;BME280;32333;55.844;-3.210;2023-12-20T06:47:03;98983.90;;;2.79;100.00
45872;BME280;32333;55.844;-3.210;2023-12-20T06:49:30;98994.43;;;3.22;100.00
45872;BME280;32333;55.844;-3.210;2023-12-20T06:51:58;98982.84;;;2.77;100.00
45872;BME280;32333;55.844;-3.210;2023-12-20T06:54:26;98987.98;;;3.51;100.00
45872;BME280;32333;55.844;-3.210;2023-12-20T06:56:54;98982.90;;;2.34;100.00
45872;BME280;32333;55.844;-3.210;2023-12-20T06:59:21;98958.37;;;2.79;100.00
45872;BME280;32333;55.844;-3.210;2023-12-20T07:01:49;98975.45;;;3.10;100.00
45872;BME280;32333;55.844;-3.210;2023-12-20T07:04:16;98963.05;;;3.01;100.00
45872;BME280;32333;55.844;-3.210;2023-12-20T07:06:44;98969.24;;;2.56;100.00
45872;BME280;32333;55.844;-3.210;2023-12-20T07:09:12;98966.90;;;2.73;100.00
45872;BME280;32333;55.844;-3.210;2023-12-20T07:11:41;98961.51;;;3.54;100.00
45872;BME280;32333;55.844;-3.210;2023-12-20T07:14:35;98957.34;;;3.65;100.00
45872;BME280;32333;55.844;-3.210;2023-12-20T07:17:03;98954.93;;;3.16;100.00
45872;BME280;32333;55.844;-3.210;2023-12-20T07:19:31;98938.43;;;3.32;100.00
45872;BME280;32333;55.844;-3.210;2023-12-20T07:21:58;98935.48;;;3.45;100.00
45872;BME280;32333;55.844;-3.210;2023-12-20T07:24:25;98932.55;;;3.55;100.00
45872;BME280;32333;55.844;-3.210;2023-12-20T07:26:52;98923.24;;;3.71;100.00
45872;BME280;32333;55.844;-3.210;2023-12-20T07:29:20;98923.71;;;3.10;100.00
45872;BME280;32333;55.844;-3.210;2023-12-20T07:31:47;98927.30;;;2.72;100.00
45872;BME280;32333;55.844;-3.210;2023-12-20T07:34:14;98929.05;;;3.12;100.00
45872;BME280;32333;55.844;-3.210;2023-12-20T07:36:41;98933.38;;;3.21;100.00
45872;BME280;32333;55.844;-3.210;2023-12-20T07:39:09;98930.73;;;2.97;100.00
45872;BME280;32333;55.844;-3.210;2023-12-20T07:41:36;98931.07;;;2.93;100.00
45872;BME280;32333;55.844;-3.210;2023-12-20T07:44:35;98930.27;;;3.83;100.00
45872;BME280;32333;55.844;-3.210;2023-12-20T07:47:03;98927.76;;;4.13;100.00
45872;BME280;32333;55.844;-3.210;2023-12-20T07:49:31;98915.62;;;3.68;100.00
45872;BME280;32333;55.844;-3.210;2023-12-20T07:51:59;98902.13;;;3.78;100.00
45872;BME280;32333;55.844;-3.210;2023-12-20T07:54:26;98887.48;;;3.78;100.00
45872;BME280;32333;55.844;-3.210;2023-12-20T07:56:53;98893.72;;;3.30;100.00
45872;BME280;32333;55.844;-3.210;2023-12-20T07:59:21;98887.47;;;3.87;100.00
45872;BME280;32333;55.844;-3.210;2023-12-20T08:01:49;98887.59;;;3.28;100.00
45872;BME280;32333;55.844;-3.210;2023-12-20T08:04:16;98890.59;;;3.30;100.00
45872;BME280;32333;55.844;-3.210;2023-12-20T08:06:43;98892.42;;;3.51;100.00
45872;BME280;32333;55.844;-3.210;2023-12-20T08:09:10;98881.57;;;3.67;100.00
45872;BME280;32333;55.844;-3.210;2023-12-20T08:11:37;98888.22;;;3.45;100.00
45872;BME280;32333;55.844;-3.210;2023-12-20T08:14:35;98892.98;;;3.88;100.00
45872;BME280;32333;55.844;-3.210;2023-12-20T08:17:03;98891.74;;;4.41;100.00
45872;BME280;32333;55.844;-3.210;2023-12-20T08:19:31;98880.97;;;3.78;100.00
45872;BME280;32333;55.844;-3.210;2023-12-20T08:21:58;98879.98;;;3.63;100.00
45872;BME280;32333;55.844;-3.210;2023-12-20T08:24:25;98884.61;;;4.24;100.00
45872;BME280;32333;55.844;-3.210;2023-12-20T08:26:52;98883.66;;;4.05;100.00
45872;BME280;32333;55.844;-3.210;2023-12-20T08:29:20;98868.73;;;3.70;100.00
45872;BME280;32333;55.844;-3.210;2023-12-20T08:31:52;98866.80;;;3.66;100.00
45872;BME280;32333;55.844;-3.210;2023-12-20T08:34:19;98865.15;;;3.69;100.00
45872;BME280;32333;55.844;-3.210;2023-12-20T08:36:46;98853.64;;;3.72;100.00
45872;BME280;32333;55.844;-3.210;2023-12-20T08:39:14;98862.56;;;3.51;100.00
45872;BME280;32333;55.844;-3.210;2023-12-20T08:41:42;98863.43;;;3.62;100.00
45872;BME280;32333;55.844;-3.210;2023-12-20T08:44:34;98856.84;;;4.20;100.00
45872;BME280;32333;55.844;-3.210;2023-12-20T08:47:02;98845.41;;;3.97;100.00
45872;BME280;32333;55.844;-3.210;2023-12-20T08:49:30;98836.54;;;3.80;100.00
45872;BME280;32333;55.844;-3.210;2023-12-20T08:51:57;98821.01;;;3.88;100.00
45872;BME280;32333;55.844;-3.210;2023-12-20T08:54:24;98819.60;;;3.82;100.00
45872;BME280;32333;55.844;-3.210;2023-12-20T08:56:51;98818.61;;;4.68;100.00
45872;BME280;32333;55.844;-3.210;2023-12-20T08:59:19;98807.10;;;4.01;100.00
45872;BME280;32333;55.844;-3.210;2023-12-20T09:01:46;98799.46;;;4.52;100.00
45872;BME280;32333;55.844;-3.210;2023-12-20T09:04:13;98795.56;;;4.83;100.00
45872;BME280;32333;55.844;-3.210;2023-12-20T09:06:40;98797.88;;;4.54;100.00
45872;BME280;32333;55.844;-3.210;2023-12-20T09:09:07;98784.22;;;5.03;100.00
45872;BME280;32333;55.844;-3.210;2023-12-20T09:11:35;98780.60;;;4.71;100.00
45872;BME280;32333;55.844;-3.210;2023-12-20T09:14:34;98771.01;;;4.83;100.00
45872;BME280;32333;55.844;-3.210;2023-12-20T09:17:01;98770.68;;;4.46;100.00
45872;BME280;32333;55.844;-3.210;2023-12-20T09:19:29;98750.00;;;4.37;100.00
45872;BME280;32333;55.844;-3.210;2023-12-20T09:21:56;98747.08;;;4.41;100.00
45872;BME280;32333;55.844;-3.210;2023-12-20T09:24:23;98744.09;;;3.90;100.00
45872;BME280;32333;55.844;-3.210;2023-12-20T09:26:51;98738.62;;;4.32;100.00
45872;BME280;32333;55.844;-3.210;2023-12-20T09:29:18;98731.53;;;4.81;100.00
45872;BME280;32333;55.844;-3.210;2023-12-20T09:31:45;98722.19;;;4.13;100.00
45872;BME280;32333;55.844;-3.210;2023-12-20T09:34:14;98710.39;;;3.98;100.00
45872;BME280;32333;55.844;-3.210;2023-12-20T09:36:42;98719.19;;;4.53;100.00
45872;BME280;32333;55.844;-3.210;2023-12-20T09:39:12;98711.54;;;4.71;100.00
45872;BME280;32333;55.844;-3.210;2023-12-20T09:41:42;98709.46;;;4.78;100.00
45872;BME280;32333;55.844;-3.210;2023-12-20T09:44:34;98691.88;;;4.84;100.00
45872;BME280;32333;55.844;-3.210;2023-12-20T09:47:03;98700.33;;;4.58;100.00
45872;BME280;32333;55.844;-3.210;2023-12-20T09:49:31;98696.85;;;5.12;100.00
45872;BME280;32333;55.844;-3.210;2023-12-20T09:52:16;98670.82;;;4.96;100.00
45872;BME280;32333;55.844;-3.210;2023-12-20T09:54:45;98661.22;;;4.30;100.00
45872;BME280;32333;55.844;-3.210;2023-12-20T09:57:17;98653.74;;;4.51;100.00
45872;BME280;32333;55.844;-3.210;2023-12-20T09:59:44;98643.17;;;4.85;100.00
45872;BME280;32333;55.844;-3.210;2023-12-20T10:02:13;98646.58;;;4.48;100.00
45872;BME280;32333;55.844;-3.210;2023-12-20T10:04:46;98639.27;;;4.80;100.00
45872;BME280;32333;55.844;-3.210;2023-12-20T10:07:15;98641.81;;;4.75;100.00
45872;BME280;32333;55.844;-3.210;2023-12-20T10:09:43;98621.00;;;5.36;100.00
45872;BME280;32333;55.844;-3.210;2023-12-20T10:14:35;98593.31;;;4.63;100.00
45872;BME280;32333;55.844;-3.210;2023-12-20T10:17:02;98569.49;;;5.33;100.00
45872;BME280;32333;55.844;-3.210;2023-12-20T10:19:32;98562.81;;;5.26;100.00
45872;BME280;32333;55.844;-3.210;2023-12-20T10:22:00;98557.73;;;5.00;100.00
45872;BME280;32333;55.844;-3.210;2023-12-20T10:24:29;98529.03;;;5.11;100.00
45872;BME280;32333;55.844;-3.210;2023-12-20T10:27:05;98507.51;;;4.85;100.00
45872;BME280;32333;55.844;-3.210;2023-12-20T10:29:33;98482.06;;;5.01;100.00
45872;BME280;32333;55.844;-3.210;2023-12-20T10:32:10;98475.75;;;5.23;100.00
45872;BME280;32333;55.844;-3.210;2023-12-20T10:34:48;98488.97;;;5.31;100.00
45872;BME280;32333;55.844;-3.210;2023-12-20T10:37:15;98533.79;;;5.32;100.00
45872;BME280;32333;55.844;-3.210;2023-12-20T10:39:43;98511.84;;;5.49;100.00
45872;BME280;32333;55.844;-3.210;2023-12-20T10:44:34;98511.44;;;5.69;100.00
45872;BME280;32333;55.844;-3.210;2023-12-20T10:47:01;98504.33;;;5.89;100.00
45872;BME280;32333;55.844;-3.210;2023-12-20T10:49:30;98499.57;;;5.44;100.00
45872;BME280;32333;55.844;-3.210;2023-12-20T10:52:00;98499.32;;;5.91;100.00
45872;BME280;32333;55.844;-3.210;2023-12-20T10:54:29;98505.49;;;5.75;100.00
45872;BME280;32333;55.844;-3.210;2023-12-20T10:56:58;98502.09;;;6.09;100.00
45872;BME280;32333;55.844;-3.210;2023-12-20T10:59:28;98493.97;;;6.17;100.00
45872;BME280;32333;55.844;-3.210;2023-12-20T11:01:57;98497.22;;;6.29;100.00
45872;BME280;32333;55.844;-3.210;2023-12-20T11:04:31;98493.60;;;6.51;100.00
45872;BME280;32333;55.844;-3.210;2023-12-20T11:07:08;98499.33;;;5.46;100.00
45872;BME280;32333;55.844;-3.210;2023-12-20T11:09:45;98497.49;;;5.47;100.00
45872;BME280;32333;55.844;-3.210;2023-12-20T11:14:40;98491.06;;;5.59;100.00
45872;BME280;32333;55.844;-3.210;2023-12-20T11:17:09;98493.88;;;6.23;100.00
45872;BME280;32333;55.844;-3.210;2023-12-20T11:20:03;98467.62;;;5.49;100.00
45872;BME280;32333;55.844;-3.210;2023-12-20T11:22:32;98464.91;;;6.40;100.00
45872;BME280;32333;55.844;-3.210;2023-12-20T11:25:05;98466.88;;;5.72;100.00
45872;BME280;32333;55.844;-3.210;2023-12-20T11:27:32;98459.94;;;6.36;100.00
45872;BME280;32333;55.844;-3.210;2023-12-20T11:29:59;98449.64;;;5.40;100.00
45872;BME280;32333;55.844;-3.210;2023-12-20T11:32:29;98436.10;;;5.87;100.00
45872;BME280;32333;55.844;-3.210;2023-12-20T11:34:58;98425.45;;;6.23;100.00
45872;BME280;32333;55.844;-3.210;2023-12-20T11:37:29;98431.58;;;5.65;100.00
45872;BME280;32333;55.844;-3.210;2023-12-20T11:40:00;98409.91;;;6.01;100.00
45872;BME280;32333;55.844;-3.210;2023-12-20T11:44:34;98415.45;;;6.21;100.00
45872;BME280;32333;55.844;-3.210;2023-12-20T11:47:04;98395.67;;;5.56;100.00
45872;BME280;32333;55.844;-3.210;2023-12-20T11:49:32;98390.21;;;6.12;100.00
45872;BME280;32333;55.844;-3.210;2023-12-20T11:51:59;98380.64;;;6.10;100.00
45872;BME280;32333;55.844;-3.210;2023-12-20T11:54:26;98366.24;;;6.13;100.00
45872;BME280;32333;55.844;-3.210;2023-12-20T11:56:53;98360.27;;;6.09;100.00
45872;BME280;32333;55.844;-3.210;2023-12-20T11:59:20;98368.70;;;6.33;100.00
45872;BME280;32333;55.844;-3.210;2023-12-20T12:01:48;98357.19;;;6.70;100.00
45872;BME280;32333;55.844;-3.210;2023-12-20T12:04:16;98359.65;;;6.13;100.00
45872;BME280;32333;55.844;-3.210;2023-12-20T12:06:43;98348.25;;;6.09;100.00
45872;BME280;32333;55.844;-3.210;2023-12-20T12:09:11;98349.90;;;5.99;100.00
45872;BME280;32333;55.844;-3.210;2023-12-20T12:11:38;98364.75;;;5.68;100.00
45872;BME280;32333;55.844;-3.210;2023-12-20T12:14:34;98355.96;;;6.25;100.00
45872;BME280;32333;55.844;-3.210;2023-12-20T12:17:02;98358.37;;;6.36;100.00
45872;BME280;32333;55.844;-3.210;2023-12-20T12:19:30;98358.15;;;6.83;100.00
45872;BME280;32333;55.844;-3.210;2023-12-20T12:22:04;98334.32;;;5.93;100.00
45872;BME280;32333;55.844;-3.210;2023-12-20T12:24:32;98346.91;;;6.23;100.00
45872;BME280;32333;55.844;-3.210;2023-12-20T12:26:59;98354.32;;;6.46;100.00
45872;BME280;32333;55.844;-3.210;2023-12-20T12:29:27;98345.44;;;5.81;100.00
45872;BME280;32333;55.844;-3.210;2023-12-20T12:31:55;98344.87;;;6.23;100.00
45872;BME280;32333;55.844;-3.210;2023-12-20T12:34:23;98342.49;;;6.46;100.00
45872;BME280;32333;55.844;-3.210;2023-12-20T12:36:50;98345.71;;;6.30;100.00
45872;BME280;32333;55.844;-3.210;2023-12-20T12:39:18;98347.31;;;6.34;100.00
45872;BME280;32333;55.844;-3.210;2023-12-20T12:41:46;98323.08;;;5.98;100.00
45872;BME280;32333;55.844;-3.210;2023-12-20T12:44:35;98339.99;;;6.31;100.00
45872;BME280;32333;55.844;-3.210;2023-12-20T12:47:02;98339.19;;;6.30;100.00
45872;BME280;32333;55.844;-3.210;2023-12-20T12:49:30;98336.50;;;6.35;100.00
45872;BME280;32333;55.844;-3.210;2023-12-20T12:51:57;98344.82;;;6.79;100.00
45872;BME280;32333;55.844;-3.210;2023-12-20T12:54:24;98344.96;;;6.41;100.00
45872;BME280;32333;55.844;-3.210;2023-12-20T12:56:51;98343.92;;;6.52;100.00
45872;BME280;32333;55.844;-3.210;2023-12-20T12:59:18;98335.70;;;6.98;100.00
45872;BME280;32333;55.844;-3.210;2023-12-20T13:01:45;98361.88;;;6.75;100.00
45872;BME280;32333;55.844;-3.210;2023-12-20T13:04:12;98351.70;;;6.85;100.00
45872;BME280;32333;55.844;-3.210;2023-12-20T13:06:40;98341.98;;;6.75;100.00
45872;BME280;32333;55.844;-3.210;2023-12-20T13:09:08;98341.89;;;6.52;100.00
45872;BME280;32333;55.844;-3.210;2023-12-20T13:11:35;98346.63;;;6.78;100.00
45872;BME280;32333;55.844;-3.210;2023-12-20T13:14:35;98357.64;;;6.66;100.00